Time;durP1;ratioP1;P1;durP2;ratioP2;P2;SDS_P1;SDS_P2;PMS_P1;PMS_P2;Temp;Humidity;BMP_temperature;BMP_pressure;BME280_temperature;BME280_humidity;BME280_pressure;Samples;Min_cycle;Max_cycle;Signal;HPM_P1;HPM_P2
2020/12/06 00:01:00;;;;;;;38.13;23.53;;;;;;;0.25;89.19;93800.31;5111320;28;20261;-77
2020/12/06 00:03:26;;;;;;;41.53;24.97;;;;;;;0.26;88.96;93799.38;5109656;28;20201;-76
2020/12/06 00:05:52;;;;;;;42.80;25.53;;;;;;;0.25;89.13;93807.97;5078200;28;20182;-77
2020/12/06 00:08:17;;;;;;;41.43;24.73;;;;;;;0.31;89.45;93816.06;5094389;28;20175;-77
2020/12/06 00:10:42;;;;;;;38.57;24.07;;;;;;;0.32;89.49;93822.78;5112850;28;20232;-78
2020/12/06 00:13:07;;;;;;;48.30;26.13;;;;;;;0.31;89.39;93821.16;5092628;28;20219;-77
2020/12/06 00:15:33;;;;;;;48.37;26.90;;;;;;;0.32;89.39;93826.13;5074176;28;20204;-76
2020/12/06 00:17:58;;;;;;;42.87;25.23;;;;;;;0.34;89.71;93815.78;5112698;28;20234;-77
2020/12/06 00:20:24;;;;;;;40.20;24.13;;;;;;;0.38;89.02;93806.97;5094344;28;20886;-77
2020/12/06 00:22:49;;;;;;;42.93;24.67;;;;;;;0.37;89.12;93815.56;5077531;28;20227;-77
2020/12/06 00:25:15;;;;;;;43.40;25.67;;;;;;;0.33;89.23;93819.28;5072718;28;20177;-77
2020/12/06 00:27:40;;;;;;;43.03;25.10;;;;;;;0.35;89.34;93807.19;5094419;28;20184;-77
2020/12/06 00:30:09;;;;;;;43.97;24.87;;;;;;;0.31;89.51;93799.00;5093394;28;20210;-77
2020/12/06 00:32:35;;;;;;;46.63;25.43;;;;;;;0.35;89.23;93791.88;5094418;28;20788;-77
2020/12/06 00:35:00;;;;;;;41.57;24.53;;;;;;;0.33;89.38;93778.44;5090595;28;20303;-77
2020/12/06 00:37:26;;;;;;;43.60;24.43;;;;;;;0.35;89.39;93782.47;5092379;28;20185;-77
2020/12/06 00:39:52;;;;;;;43.23;23.63;;;;;;;0.39;89.48;93767.72;5111267;28;20234;-77
2020/12/06 00:42:17;;;;;;;46.77;25.63;;;;;;;0.36;89.40;93773.91;5112087;28;20196;-77
2020/12/06 00:44:42;;;;;;;42.27;24.87;;;;;;;0.37;89.17;93770.41;5094412;28;20168;-77
2020/12/06 00:47:07;;;;;;;42.37;24.33;;;;;;;0.36;89.51;93758.56;5104574;28;20180;-77
2020/12/06 00:49:33;;;;;;;42.67;23.73;;;;;;;0.38;89.44;93745.69;5112007;28;20211;-76
2020/12/06 00:51:58;;;;;;;48.53;24.33;;;;;;;0.36;89.34;93732.25;5076737;28;20179;-77
2020/12/06 00:54:24;;;;;;;42.03;23.23;;;;;;;0.38;89.21;93727.81;5094054;28;20203;-77
2020/12/06 00:56:54;;;;;;;39.60;23.43;;;;;;;0.39;89.13;93726.84;5101395;28;20273;-77
2020/12/06 00:59:20;;;;;;;41.80;23.93;;;;;;;0.38;89.21;93722.69;5090929;28;20213;-77
2020/12/06 01:01:45;;;;;;;42.20;23.30;;;;;;;0.37;89.34;93704.00;5110867;28;20180;-77
2020/12/06 01:04:10;;;;;;;38.50;22.83;;;;;;;0.35;89.52;93687.19;5111001;28;20256;-77
2020/12/06 01:06:36;;;;;;;37.77;22.37;;;;;;;0.37;89.63;93695.56;5112272;28;20710;-77
2020/12/06 01:09:01;;;;;;;36.90;21.20;;;;;;;0.37;89.47;93693.81;5106439;28;20811;-77
2020/12/06 01:11:26;;;;;;;36.47;20.57;;;;;;;0.44;89.24;93699.16;5076955;28;20182;-77
2020/12/06 01:13:52;;;;;;;39.83;23.57;;;;;;;0.38;89.39;93699.72;5093346;28;20690;-77
2020/12/06 01:16:17;;;;;;;37.03;21.63;;;;;;;0.39;89.22;93717.44;5093885;28;20176;-77
2020/12/06 01:18:42;;;;;;;36.20;22.37;;;;;;;0.40;89.52;93731.03;5080734;28;20188;-77
2020/12/06 01:21:11;;;;;;;37.40;22.50;;;;;;;0.43;89.60;93751.19;5089429;28;20180;-77
2020/12/06 01:23:36;;;;;;;38.70;22.47;;;;;;;0.45;89.46;93757.00;5076744;28;20225;-77
2020/12/06 01:26:01;;;;;;;46.47;22.97;;;;;;;0.48;89.56;93756.72;5076925;28;20270;-77
2020/12/06 01:28:27;;;;;;;37.27;21.77;;;;;;;0.47;89.25;93755.09;5091275;28;20216;-77
2020/12/06 01:30:52;;;;;;;41.03;23.73;;;;;;;0.53;89.39;93775.00;5093113;28;20174;-77
2020/12/06 01:33:17;;;;;;;35.07;20.57;;;;;;;0.56;89.32;93779.88;5093449;28;20203;-78
2020/12/06 01:35:43;;;;;;;32.67;19.57;;;;;;;0.52;89.42;93781.84;5093737;28;20218;-77
2020/12/06 01:38:08;;;;;;;29.87;19.23;;;;;;;0.54;89.48;93794.50;5093010;28;20183;-77
2020/12/06 01:40:39;;;;;;;33.40;20.20;;;;;;;0.56;89.72;93798.53;5093016;28;20191;-77
2020/12/06 01:43:04;;;;;;;31.70;19.23;;;;;;;0.56;89.44;93798.53;5101480;28;20199;-77
2020/12/06 01:45:29;;;;;;;31.03;18.37;;;;;;;0.54;89.45;93776.63;5097762;28;20227;-78
2020/12/06 01:47:55;;;;;;;35.37;20.30;;;;;;;0.52;89.40;93758.88;5115990;28;20594;-77
2020/12/06 01:50:20;;;;;;;32.50;19.83;;;;;;;0.59;89.08;93758.34;5095240;28;20191;-77
2020/12/06 01:52:46;;;;;;;28.63;18.20;;;;;;;0.56;89.20;93760.22;5115692;28;20196;-77
2020/12/06 01:55:12;;;;;;;32.47;19.27;;;;;;;0.55;89.46;93763.72;5096972;28;20222;-77
2020/12/06 01:57:38;;;;;;;33.33;20.30;;;;;;;0.50;89.29;93770.97;5097587;28;20187;-77
2020/12/06 02:00:05;;;;;;;30.07;19.67;;;;;;;0.52;89.27;93763.97;5095903;28;20176;-78
2020/12/06 02:02:30;;;;;;;34.43;21.13;;;;;;;0.50;89.38;93762.50;5108053;28;20203;-77
2020/12/06 02:04:56;;;;;;;36.33;20.57;;;;;;;0.51;89.27;93761.56;5115457;28;20190;-77
2020/12/06 02:07:21;;;;;;;30.60;18.77;;;;;;;0.54;89.55;93763.88;5096839;28;20172;-77
2020/12/06 02:09:46;;;;;;;32.43;19.23;;;;;;;0.53;89.35;93769.88;5096910;28;20229;-77
2020/12/06 02:12:12;;;;;;;31.67;19.73;;;;;;;0.52;89.40;93784.41;5113089;28;20183;-77
2020/12/06 02:14:37;;;;;;;32.23;20.90;;;;;;;0.52;89.37;93793.81;5096939;28;20268;-77
2020/12/06 02:17:02;;;;;;;36.47;21.07;;;;;;;0.53;89.05;93786.06;5079781;28;20627;-78
2020/12/06 02:19:28;;;;;;;34.40;20.47;;;;;;;0.54;89.42;93768.97;5096775;28;20262;-77
2020/12/06 02:21:53;;;;;;;32.87;18.83;;;;;;;0.54;89.33;93769.78;5109940;28;20706;-77
2020/12/06 02:24:19;;;;;;;35.30;20.40;;;;;;;0.58;89.45;93765.22;5076797;28;20188;-78
2020/12/06 02:26:47;;;;;;;33.63;20.53;;;;;;;0.59;89.29;93763.47;5097078;28;20255;-77
2020/12/06 02:29:13;;;;;;;36.63;20.53;;;;;;;0.57;89.30;93755.94;5079565;28;20228;-77
2020/12/06 02:31:39;;;;;;;34.53;20.03;;;;;;;0.60;89.65;93767.63;5097010;28;20271;-77
2020/12/06 02:34:08;;;;;;;33.43;19.50;;;;;;;0.60;89.41;93759.97;5101022;28;20222;-77
2020/12/06 02:36:33;;;;;;;31.60;18.70;;;;;;;0.60;89.47;93740.34;5080098;28;20222;-77
2020/12/06 02:38:59;;;;;;;26.63;16.93;;;;;;;0.65;89.54;93742.50;5096236;28;20583;-77
2020/12/06 02:41:42;;;;;;;27.90;17.77;;;;;;;0.66;89.34;93739.81;5096796;28;20194;-77
2020/12/06 02:44:09;;;;;;;26.73;17.00;;;;;;;0.66;89.47;93742.38;5093865;28;20207;-77
2020/12/06 02:46:35;;;;;;;27.83;17.87;;;;;;;0.64;89.33;93726.38;5096307;28;20275;-77
2020/12/06 02:49:00;;;;;;;29.53;17.37;;;;;;;0.64;89.36;93713.59;5078919;28;20191;-77
2020/12/06 02:51:26;;;;;;;29.73;16.53;;;;;;;0.68;89.62;93706.47;5114775;28;20172;-77
2020/12/06 02:53:51;;;;;;;25.60;15.17;;;;;;;0.68;89.61;93698.81;5090259;28;20249;-77
2020/12/06 02:56:17;;;;;;;24.23;15.37;;;;;;;0.67;88.95;93700.56;5095667;28;20277;-77
2020/12/06 02:58:42;;;;;;;34.37;17.93;;;;;;;0.63;89.29;93693.31;5114350;28;20179;-77
2020/12/06 03:01:07;;;;;;;30.93;17.53;;;;;;;0.63;89.62;93701.78;5094639;28;20260;-77
2020/12/06 03:03:33;;;;;;;42.30;18.93;;;;;;;0.63;89.64;93690.75;5096050;28;20375;-76
2020/12/06 03:05:58;;;;;;;42.27;19.73;;;;;;;0.61;89.44;93692.59;5096129;28;20211;-77
2020/12/06 03:08:23;;;;;;;37.33;19.23;;;;;;;0.63;89.54;93696.66;5113313;28;20631;-77
2020/12/06 03:10:49;;;;;;;217.07;26.30;;;;;;;0.61;89.27;93708.75;5104956;28;20191;-77
2020/12/06 03:13:14;;;;;;;95.30;21.07;;;;;;;0.59;89.52;93708.06;5092614;28;20212;-77
2020/12/06 03:15:39;;;;;;;80.50;21.03;;;;;;;0.59;89.70;93702.97;5075286;28;20623;-77
2020/12/06 03:18:05;;;;;;;140.57;24.10;;;;;;;0.59;89.65;93712.38;5093888;28;20177;-77
2020/12/06 03:20:30;;;;;;;400.67;35.87;;;;;;;0.59;89.79;93704.72;5074747;28;20175;-77
2020/12/06 03:22:55;;;;;;;553.97;44.30;;;;;;;0.59;89.77;93691.94;5094165;28;20204;-78
2020/12/06 03:25:20;;;;;;;739.17;57.40;;;;;;;0.56;89.84;93686.16;5095763;28;20670;-77
2020/12/06 03:27:46;;;;;;;512.43;43.80;;;;;;;0.57;90.01;93679.31;5113663;28;20180;-77
2020/12/06 03:30:11;;;;;;;447.20;39.37;;;;;;;0.51;89.98;93690.03;5112393;28;20219;-77
2020/12/06 03:32:36;;;;;;;562.00;42.97;;;;;;;0.54;90.29;93700.00;5099083;28;20291;-77
2020/12/06 03:35:02;;;;;;;361.27;33.23;;;;;;;0.53;90.50;93696.66;5095320;28;20207;-76
2020/12/06 03:37:27;;;;;;;489.20;41.30;;;;;;;0.50;90.47;93701.19;5095293;28;20218;-77
2020/12/06 03:39:53;;;;;;;614.53;47.13;;;;;;;0.38;90.65;93697.16;5113497;28;20188;-77
2020/12/06 03:42:18;;;;;;;555.43;46.10;;;;;;;0.38;90.47;93692.84;5089620;28;20266;-77
2020/12/06 03:44:43;;;;;;;830.30;57.63;;;;;;;0.33;90.77;93717.97;5095858;28;20587;-77
2020/12/06 03:47:08;;;;;;;852.50;62.80;;;;;;;0.29;90.61;93721.72;5112337;28;20180;-77
2020/12/06 03:49:34;;;;;;;317.80;31.17;;;;;;;0.30;90.50;93723.34;5111894;28;20180;-77
2020/12/06 03:51:59;;;;;;;851.87;57.83;;;;;;;0.17;90.74;93723.56;5110449;28;20205;-77
2020/12/06 03:54:24;;;;;;;496.60;40.90;;;;;;;0.18;90.68;93730.31;5093581;28;20195;-77
2020/12/06 03:56:50;;;;;;;170.80;23.73;;;;;;;0.15;90.79;93720.34;5113537;28;20218;-77
2020/12/06 03:59:15;;;;;;;806.77;59.33;;;;;;;0.17;90.66;93718.44;5095146;28;20176;-77
2020/12/06 04:01:40;;;;;;;737.47;57.17;;;;;;;0.12;90.76;93730.00;5092893;28;20647;-77
2020/12/06 04:04:06;;;;;;;1179.97;81.63;;;;;;;0.05;91.18;93729.69;5093407;28;20197;-78
2020/12/06 04:06:31;;;;;;;1205.87;82.03;;;;;;;0.04;91.00;93732.38;5094697;28;20228;-77
2020/12/06 04:08:56;;;;;;;967.43;69.47;;;;;;;0.07;90.96;93724.47;5094791;28;20639;-77
2020/12/06 04:11:22;;;;;;;869.13;64.07;;;;;;;0.05;91.19;93723.78;5091842;28;20674;-77
2020/12/06 04:13:47;;;;;;;1215.47;91.87;;;;;;;-0.15;91.26;93723.72;5093694;28;20206;-77
2020/12/06 04:16:12;;;;;;;940.73;69.10;;;;;;;-0.16;91.61;93726.41;5108419;28;20184;-77
2020/12/06 04:18:37;;;;;;;813.80;59.23;;;;;;;-0.14;91.17;93730.44;5094420;28;20236;-77
2020/12/06 04:21:03;;;;;;;997.07;66.67;;;;;;;-0.16;91.17;93723.84;5094773;28;20545;-77
2020/12/06 04:23:28;;;;;;;525.17;45.03;;;;;;;-0.18;91.20;93715.50;5067215;28;20243;-77
2020/12/06 04:25:54;;;;;;;787.10;61.00;;;;;;;-0.20;91.44;93715.63;5077414;28;20187;-77
2020/12/06 04:28:19;;;;;;;1151.70;81.03;;;;;;;-0.26;91.19;93728.09;5111251;28;20196;-77
2020/12/06 04:30:45;;;;;;;511.17;42.30;;;;;;;-0.20;91.35;93725.84;5112662;28;20195;-77
2020/12/06 04:33:10;;;;;;;882.67;63.20;;;;;;;-0.24;91.48;93727.03;5106185;28;20207;-77
2020/12/06 04:35:35;;;;;;;412.20;41.40;;;;;;;-0.18;91.51;93734.16;5094213;28;20230;-77
2020/12/06 04:38:01;;;;;;;688.20;60.03;;;;;;;-0.18;91.21;93730.81;5111471;28;20183;-77
2020/12/06 04:40:26;;;;;;;765.03;57.67;;;;;;;-0.20;91.36;93719.94;5110851;28;20643;-77
2020/12/06 04:42:52;;;;;;;395.20;36.37;;;;;;;-0.11;91.26;93703.84;5112599;28;20191;-77
2020/12/06 04:45:17;;;;;;;641.07;53.97;;;;;;;-0.19;91.38;93703.69;5091388;28;20268;-78
2020/12/06 04:48:00;;;;;;;368.37;34.60;;;;;;;-0.13;91.09;93710.81;5112177;28;20660;-77
2020/12/06 04:50:31;;;;;;;297.33;30.53;;;;;;;-0.09;91.33;93723.22;5094026;28;20649;-77
2020/12/06 04:52:58;;;;;;;243.97;30.87;;;;;;;-0.11;91.29;93737.03;5111203;28;20675;-77
2020/12/06 04:55:29;;;;;;;956.07;64.37;;;;;;;-0.18;91.26;93741.81;5096266;28;20227;-77
2020/12/06 04:57:56;;;;;;;772.63;57.70;;;;;;;-0.20;91.10;93738.59;5094160;28;20179;-77
2020/12/06 05:00:36;;;;;;;764.70;58.07;;;;;;;-0.19;91.27;93721.53;5094065;28;20550;-77
2020/12/06 05:03:10;;;;;;;366.73;31.93;;;;;;;-0.19;91.34;93718.97;5094098;28;20197;-77
2020/12/06 05:05:41;;;;;;;716.90;54.27;;;;;;;-0.18;91.59;93718.03;5092183;28;20182;-77
2020/12/06 05:08:10;;;;;;;403.27;32.17;;;;;;;-0.11;91.13;93711.50;5097356;28;20179;-77
2020/12/06 05:10:38;;;;;;;679.43;49.77;;;;;;;-0.12;91.34;93703.03;5110456;28;20208;-77
2020/12/06 05:13:04;;;;;;;382.87;37.43;;;;;;;-0.09;91.31;93705.34;5110974;28;20219;-78
2020/12/06 05:15:30;;;;;;;213.67;26.00;;;;;;;-0.10;91.05;93702.91;5090524;28;20303;-77
2020/12/06 05:17:55;;;;;;;344.93;32.53;;;;;;;-0.05;91.14;93711.00;5090386;28;20194;-77
2020/12/06 05:20:21;;;;;;;613.00;42.97;;;;;;;-0.14;90.73;93715.13;5088371;28;20172;-77
2020/12/06 05:22:46;;;;;;;560.53;40.47;;;;;;;-0.13;90.94;93710.81;5091108;28;20280;-78
2020/12/06 05:25:15;;;;;;;438.00;34.40;;;;;;;-0.18;91.10;93708.66;5073473;28;20176;-77
2020/12/06 05:27:41;;;;;;;166.70;22.67;;;;;;;-0.14;90.88;93714.31;5071114;28;20187;-77
2020/12/06 05:30:06;;;;;;;333.13;28.13;;;;;;;-0.16;91.01;93713.66;5111455;28;20195;-77
2020/12/06 05:32:32;;;;;;;79.80;18.03;;;;;;;-0.15;90.75;93715.25;5076900;28;20211;-77
2020/12/06 05:34:58;;;;;;;73.43;18.07;;;;;;;-0.10;90.88;93710.56;5112310;28;20231;-77
2020/12/06 05:37:23;;;;;;;55.20;14.53;;;;;;;-0.12;90.89;93710.69;5075936;28;20225;-77
2020/12/06 05:39:59;;;;;;;87.57;15.97;;;;;;;-0.12;90.89;93720.09;5111402;28;20643;-77
2020/12/06 05:42:25;;;;;;;48.63;13.20;;;;;;;-0.13;90.63;93714.19;5093172;28;20278;-77
2020/12/06 05:44:55;;;;;;;80.30;15.13;;;;;;;-0.14;90.53;93701.56;5076940;28;20178;-77
2020/12/06 05:47:20;;;;;;;189.70;17.63;;;;;;;-0.18;90.63;93693.34;5091313;28;20256;-77
2020/12/06 05:49:46;;;;;;;69.13;14.97;;;;;;;-0.21;90.46;93697.91;5091348;28;20240;-77
2020/12/06 05:52:11;;;;;;;31.13;11.73;;;;;;;-0.20;90.33;93699.50;5111433;28;20184;-77
2020/12/06 05:54:37;;;;;;;32.63;12.47;;;;;;;-0.20;90.76;93695.22;5110370;28;20200;-77
2020/12/06 05:57:02;;;;;;;25.90;10.43;;;;;;;-0.17;90.39;93699.28;5093428;28;20700;-77
2020/12/06 05:59:28;;;;;;;23.83;10.77;;;;;;;-0.16;90.38;93700.88;5095684;28;20187;-77
2020/12/06 06:01:54;;;;;;;19.93;9.37;;;;;;;-0.14;90.50;93709.22;5076462;28;20652;-77
2020/12/06 06:04:21;;;;;;;17.97;8.60;;;;;;;-0.12;90.61;93715.00;5111179;28;20191;-78
2020/12/06 06:06:50;;;;;;;19.13;9.80;;;;;;;-0.15;90.51;93720.38;5076458;28;20176;-77
2020/12/06 06:09:17;;;;;;;19.83;9.67;;;;;;;-0.12;90.70;93732.84;5086969;28;20193;-77
2020/12/06 06:11:54;;;;;;;23.03;9.27;;;;;;;-0.11;90.68;93724.25;5092782;28;20176;-77
2020/12/06 06:14:20;;;;;;;33.80;9.17;;;;;;;-0.10;90.58;93725.88;5110032;28;20739;-77
2020/12/06 06:16:46;;;;;;;66.63;10.97;;;;;;;-0.07;90.39;93717.97;5110444;28;20659;-77
2020/12/06 06:19:11;;;;;;;28.20;9.50;;;;;;;-0.08;90.34;93714.63;5075452;28;20180;-77
2020/12/06 06:21:39;;;;;;;42.40;10.17;;;;;;;-0.07;90.32;93729.00;5098452;28;20266;-77
2020/12/06 06:24:10;;;;;;;34.60;9.00;;;;;;;-0.14;90.42;93730.44;5093018;28;20282;-77
2020/12/06 06:26:37;;;;;;;25.73;9.90;;;;;;;-0.12;90.28;93730.31;5111030;28;20182;-77
2020/12/06 06:29:10;;;;;;;38.60;10.97;;;;;;;-0.11;90.19;93726.81;5079234;28;20198;-77
2020/12/06 06:31:35;;;;;;;29.23;9.73;;;;;;;-0.13;90.28;93724.38;5101153;28;20188;-78
2020/12/06 06:34:01;;;;;;;30.27;9.57;;;;;;;-0.09;90.43;93727.47;5096563;28;20249;-77
2020/12/06 06:36:28;;;;;;;41.63;9.27;;;;;;;-0.05;90.62;93731.41;5096714;28;20180;-77
2020/12/06 06:38:54;;;;;;;23.17;8.90;;;;;;;-0.09;90.14;93728.31;5096884;28;20553;-77
2020/12/06 06:41:24;;;;;;;37.53;9.80;;;;;;;-0.10;90.53;93738.63;5077845;28;20191;-77
2020/12/06 06:43:49;;;;;;;35.67;9.27;;;;;;;-0.05;90.00;93744.16;5096435;28;20188;-78
2020/12/06 06:46:21;;;;;;;21.57;7.70;;;;;;;-0.07;90.60;93746.06;5113339;28;20179;-78
2020/12/06 06:48:48;;;;;;;24.73;8.77;;;;;;;-0.03;90.30;93763.50;5096874;28;20176;-78
2020/12/06 06:51:18;;;;;;;17.80;8.63;;;;;;;-0.04;90.80;93766.19;5096333;28;20176;-79
2020/12/06 06:53:43;;;;;;;25.80;9.40;;;;;;;-0.04;90.39;93779.75;5092934;28;20207;-79
2020/12/06 06:56:09;;;;;;;23.47;9.00;;;;;;;-0.05;90.42;93788.34;5110685;28;20191;-76
2020/12/06 06:58:35;;;;;;;36.80;10.23;;;;;;;-0.05;90.32;93780.69;5097591;27;20182;-76
2020/12/06 07:01:21;;;;;;;18.37;9.80;;;;;;;-0.03;90.33;93780.56;5115190;27;20791;-75
2020/12/06 07:03:48;;;;;;;17.33;9.27;;;;;;;0.00;90.19;93777.78;5094173;28;20204;-76
2020/12/06 07:06:53;;;;;;;30.53;11.17;;;;;;;-0.02;90.21;93783.00;5093266;28;20187;-76
2020/12/06 07:09:26;;;;;;;20.83;9.53;;;;;;;0.00;90.62;93767.56;5014873;28;20581;-76
2020/12/06 07:11:56;;;;;;;31.90;10.03;;;;;;;-0.03;90.28;93762.72;5031694;28;20202;-76
2020/12/06 07:14:23;;;;;;;29.83;11.17;;;;;;;-0.04;90.01;93776.41;5011588;28;20656;-76
2020/12/06 07:16:49;;;;;;;22.17;9.87;;;;;;;-0.04;90.24;93769.56;5014528;28;20187;-76
2020/12/06 07:19:14;;;;;;;19.70;10.40;;;;;;;-0.01;89.98;93765.94;4998066;28;20203;-76
2020/12/06 07:21:41;;;;;;;23.73;9.27;;;;;;;0.01;90.43;93768.38;5031193;28;20195;-75
2020/12/06 07:24:07;;;;;;;18.33;9.37;;;;;;;0.02;90.36;93775.91;4993803;28;20206;-76
2020/12/06 07:26:32;;;;;;;20.80;9.57;;;;;;;0.07;90.33;93783.97;5013793;28;20194;-76
2020/12/06 07:28:58;;;;;;;19.03;9.87;;;;;;;0.07;90.19;93778.06;5030232;28;20198;-76
2020/12/06 07:31:25;;;;;;;20.07;9.53;;;;;;;0.10;90.76;93773.53;5031333;28;20179;-76
2020/12/06 07:33:50;;;;;;;16.50;10.00;;;;;;;0.11;90.28;93764.94;5014243;28;20211;-76
2020/12/06 07:36:16;;;;;;;22.57;10.30;;;;;;;0.14;90.46;93774.06;4995942;28;20195;-76
2020/12/06 07:38:42;;;;;;;18.33;9.50;;;;;;;0.16;90.10;93775.53;5013807;28;20698;-78
2020/12/06 07:41:07;;;;;;;17.83;8.37;;;;;;;0.18;90.20;93771.16;5074447;28;20275;-78
2020/12/06 07:43:33;;;;;;;17.80;9.60;;;;;;;0.19;90.07;93762.53;5078608;28;20199;-78
2020/12/06 07:46:18;;;;;;;15.87;8.83;;;;;;;0.19;89.96;93752.34;5076716;28;20176;-78
2020/12/06 07:48:44;;;;;;;21.33;10.17;;;;;;;0.19;89.84;93757.44;5113373;28;20171;-77
2020/12/06 07:51:09;;;;;;;18.60;10.17;;;;;;;0.21;90.17;93758.13;5112079;28;20202;-75
2020/12/06 07:53:45;;;;;;;16.57;9.63;;;;;;;0.21;89.79;93770.88;5112474;28;20202;-75
2020/12/06 07:56:10;;;;;;;21.03;10.10;;;;;;;0.23;89.79;93769.00;5100896;28;20619;-75
2020/12/06 07:58:41;;;;;;;20.80;10.50;;;;;;;0.22;89.92;93776.78;5094792;28;20200;-76
2020/12/06 08:01:06;;;;;;;24.10;11.93;;;;;;;0.21;89.62;93791.31;5078348;28;20226;-75
2020/12/06 08:03:32;;;;;;;25.90;13.10;;;;;;;0.24;89.86;93790.22;5094872;28;20235;-75
2020/12/06 08:05:59;;;;;;;29.47;14.43;;;;;;;0.27;90.02;93787.44;5112294;28;20197;-76
2020/12/06 08:08:25;;;;;;;26.50;12.73;;;;;;;0.30;89.98;93771.03;5110224;28;20234;-76
2020/12/06 08:10:51;;;;;;;24.93;13.40;;;;;;;0.31;89.98;93781.13;5081367;28;20276;-76
2020/12/06 08:13:17;;;;;;;23.10;11.90;;;;;;;0.34;90.03;93785.16;5074752;28;20193;-75
2020/12/06 08:15:42;;;;;;;21.77;11.30;;;;;;;0.37;89.67;93782.38;5074558;28;20196;-76
2020/12/06 08:18:16;;;;;;;26.60;12.77;;;;;;;0.38;89.58;93784.78;5082757;28;20172;-76
2020/12/06 08:20:51;;;;;;;26.93;12.40;;;;;;;0.39;89.58;93786.41;5094582;28;20236;-75
2020/12/06 08:23:18;;;;;;;22.07;12.47;;;;;;;0.41;89.42;93786.25;5112846;27;20264;-75
2020/12/06 08:25:46;;;;;;;28.03;14.97;;;;;;;0.48;90.06;93787.38;5111355;28;20233;-76
2020/12/06 08:28:18;;;;;;;23.87;14.33;;;;;;;0.49;89.66;93788.97;5090530;28;20659;-75
2020/12/06 08:30:43;;;;;;;24.47;12.73;;;;;;;0.52;89.69;93781.84;5094362;28;20172;-76
2020/12/06 08:33:09;;;;;;;23.07;13.30;;;;;;;0.57;89.85;93795.06;5112321;28;20535;-74
2020/12/06 08:35:42;;;;;;;25.27;14.27;;;;;;;0.61;89.62;93787.13;5111395;28;20200;-75
2020/12/06 08:38:14;;;;;;;26.63;14.27;;;;;;;0.61;89.29;93793.03;5110343;28;20774;-76
2020/12/06 08:41:00;;;;;;;26.00;14.23;;;;;;;0.65;89.14;93783.38;5077665;28;20268;-75
2020/12/06 08:43:54;;;;;;;30.60;17.13;;;;;;;0.67;89.38;93782.31;5116610;28;20710;-75
2020/12/06 08:46:21;;;;;;;22.27;12.90;;;;;;;0.70;89.42;93787.13;5094713;28;20258;-75
2020/12/06 08:48:47;;;;;;;18.83;12.30;;;;;;;0.67;89.10;93787.41;5093400;28;20176;-76
2020/12/06 08:51:51;;;;;;;29.33;16.40;;;;;;;0.72;88.92;93787.84;5075450;28;20259;-75
2020/12/06 08:54:33;;;;;;;39.73;22.33;;;;;;;0.76;89.44;93768.75;5064643;28;20215;-75
2020/12/06 08:57:26;;;;;;;38.80;19.53;;;;;;;0.78;89.00;93764.28;5111205;28;20651;-75
2020/12/06 08:59:51;;;;;;;23.87;13.90;;;;;;;0.81;89.03;93776.81;5088657;28;20224;-75
2020/12/06 09:02:24;;;;;;;17.20;10.53;;;;;;;0.76;88.73;93776.41;5092015;28;20236;-75
2020/12/06 09:04:50;;;;;;;17.47;10.30;;;;;;;0.81;88.60;93778.56;5112122;28;20179;-74
2020/12/06 09:07:16;;;;;;;16.57;9.40;;;;;;;0.84;88.54;93779.13;5093917;28;20674;-74
2020/12/06 09:09:41;;;;;;;16.00;10.60;;;;;;;0.89;88.61;93767.69;5093863;28;20258;-77
2020/12/06 09:12:06;;;;;;;17.00;10.23;;;;;;;0.88;88.36;93756.63;5108128;28;20195;-74
2020/12/06 09:14:32;;;;;;;16.57;10.37;;;;;;;0.94;88.35;93755.31;5077089;28;20699;-75
2020/12/06 09:16:57;;;;;;;14.60;9.60;;;;;;;0.99;88.46;93758.28;5110886;28;20180;-75
2020/12/06 09:19:22;;;;;;;14.83;9.03;;;;;;;1.05;88.10;93767.97;5110705;28;20640;-75
2020/12/06 09:21:48;;;;;;;17.33;11.00;;;;;;;1.05;88.04;93767.97;5102616;28;20195;-75
2020/12/06 09:24:13;;;;;;;17.07;10.83;;;;;;;1.12;88.13;93771.59;5075913;28;20207;-76
2020/12/06 09:26:38;;;;;;;18.63;11.30;;;;;;;1.14;87.71;93777.38;5076759;28;20244;-75
2020/12/06 09:29:04;;;;;;;16.27;10.23;;;;;;;1.08;87.37;93781.31;5093527;28;20203;-76
2020/12/06 09:31:29;;;;;;;20.87;13.67;;;;;;;1.09;87.38;93777.81;5093102;28;20187;-76
2020/12/06 09:33:55;;;;;;;18.43;11.67;;;;;;;1.15;87.66;93779.03;5091681;28;20204;-75
2020/12/06 09:36:20;;;;;;;21.17;13.83;;;;;;;1.09;87.57;93772.69;5111724;28;20178;-75
2020/12/06 09:38:46;;;;;;;19.07;12.97;;;;;;;1.11;87.72;93780.22;5093085;28;20603;-76
2020/12/06 09:41:14;;;;;;;21.40;14.00;;;;;;;1.10;87.70;93781.97;5110726;28;20183;-75
2020/12/06 09:43:41;;;;;;;17.43;11.33;;;;;;;1.13;87.47;93779.13;5097430;28;20228;-75
2020/12/06 09:46:08;;;;;;;13.60;8.60;;;;;;;1.13;87.85;93786.00;5092676;28;20168;-76
2020/12/06 09:48:33;;;;;;;12.70;8.53;;;;;;;1.14;87.49;93795.28;5110403;28;20179;-76
2020/12/06 09:50:58;;;;;;;21.77;13.63;;;;;;;1.10;87.81;93802.41;5110558;28;20704;-75
2020/12/06 09:53:23;;;;;;;19.90;11.90;;;;;;;1.06;87.64;93805.34;5106982;28;20256;-75
2020/12/06 09:55:49;;;;;;;16.03;10.13;;;;;;;0.91;87.46;93806.69;5076335;28;20203;-75
2020/12/06 09:58:14;;;;;;;12.83;7.23;;;;;;;0.88;87.79;93812.06;5093544;28;20188;-76
2020/12/06 10:00:41;;;;;;;15.90;10.53;;;;;;;0.89;87.54;93811.16;5092905;28;20171;-75
2020/12/06 10:03:06;;;;;;;9.60;7.27;;;;;;;0.90;87.45;93815.31;5097160;28;20191;-76
2020/12/06 10:05:32;;;;;;;6.97;5.20;;;;;;;0.90;87.49;93821.22;5111465;28;20184;-75
2020/12/06 10:07:57;;;;;;;7.70;5.67;;;;;;;0.92;87.86;93816.78;5108852;28;20180;-76
2020/12/06 10:10:22;;;;;;;8.97;6.47;;;;;;;1.04;87.64;93804.69;5097061;28;20218;-76
2020/12/06 10:12:48;;;;;;;8.23;6.50;;;;;;;1.21;87.23;93791.25;5115605;28;20191;-75
2020/12/06 10:15:13;;;;;;;9.00;6.87;;;;;;;1.32;87.40;93773.22;5112670;28;20207;-76
2020/12/06 10:17:39;;;;;;;9.77;8.20;;;;;;;1.33;87.11;93762.06;5115274;28;20204;-75
2020/12/06 10:20:06;;;;;;;8.10;6.23;;;;;;;1.45;87.24;93769.59;5114973;28;20749;-76
2020/12/06 10:22:31;;;;;;;6.23;5.10;;;;;;;1.49;86.45;93781.16;5097144;28;20248;-76
2020/12/06 10:24:56;;;;;;;6.57;5.40;;;;;;;1.54;86.91;93782.38;5113122;28;20176;-75
2020/12/06 10:27:22;;;;;;;6.47;4.57;;;;;;;1.57;86.44;93792.31;5095037;28;20192;-76
2020/12/06 10:29:47;;;;;;;5.67;4.67;;;;;;;1.55;86.41;93798.53;5113696;28;20222;-76
2020/12/06 10:32:12;;;;;;;11.83;10.37;;;;;;;1.51;86.39;93798.00;5096609;28;20187;-76
2020/12/06 10:34:38;;;;;;;6.23;5.60;;;;;;;1.49;85.95;93804.97;5096804;28;20192;-76
2020/12/06 10:37:03;;;;;;;3.70;3.30;;;;;;;1.52;86.14;93811.59;5093545;28;20241;-76
2020/12/06 10:39:29;;;;;;;3.50;3.17;;;;;;;1.42;86.12;93801.38;5079673;28;20176;-76
2020/12/06 10:41:55;;;;;;;3.73;3.37;;;;;;;1.48;86.42;93805.13;5114461;28;20172;-76
2020/12/06 10:44:22;;;;;;;4.47;4.00;;;;;;;1.53;87.14;93801.22;5096792;28;20651;-76
2020/12/06 10:46:48;;;;;;;22.87;15.13;;;;;;;1.50;86.52;93814.25;5091618;28;20211;-75
2020/12/06 10:49:14;;;;;;;15.20;10.40;;;;;;;1.59;86.44;93818.59;5092703;28;20180;-76
2020/12/06 10:51:40;;;;;;;6.63;5.10;;;;;;;1.62;86.60;93812.41;5113669;28;20190;-76
2020/12/06 10:54:06;;;;;;;4.60;4.20;;;;;;;1.69;86.48;93798.91;5096174;28;20207;-75
2020/12/06 10:56:32;;;;;;;5.27;4.77;;;;;;;1.83;86.28;93795.13;5095485;28;20180;-75
2020/12/06 10:58:57;;;;;;;4.20;3.80;;;;;;;1.98;86.19;93783.50;5112343;28;20317;-76
2020/12/06 11:01:26;;;;;;;4.80;3.80;;;;;;;2.20;85.69;93792.59;5096285;28;20666;-76
2020/12/06 11:03:51;;;;;;;4.07;2.87;;;;;;;2.25;85.55;93779.38;5096138;28;20199;-76
2020/12/06 11:06:21;;;;;;;3.67;3.33;;;;;;;2.15;84.16;93786.28;5096629;28;20168;-75
2020/12/06 11:08:46;;;;;;;3.47;3.17;;;;;;;2.06;84.94;93782.00;5091918;28;20186;-76
2020/12/06 11:11:16;;;;;;;3.27;2.87;;;;;;;2.02;84.59;93786.56;5084685;28;20172;-76
2020/12/06 11:13:42;;;;;;;3.60;3.30;;;;;;;2.12;85.03;93773.75;5099686;28;20640;-76
2020/12/06 11:16:07;;;;;;;3.43;3.00;;;;;;;2.18;84.52;93775.75;5113683;28;20283;-76
2020/12/06 11:18:33;;;;;;;3.40;2.60;;;;;;;2.21;84.54;93775.50;5095051;28;20183;-76
2020/12/06 11:20:58;;;;;;;3.13;2.83;;;;;;;2.19;84.97;93778.16;5095720;28;20191;-76
2020/12/06 11:23:23;;;;;;;2.90;2.70;;;;;;;2.19;84.47;93780.72;5092124;28;20671;-76